sensor_id;sensor_type;location;lat;lon;timestamp;temperature;humidity
51878;SHT31;37911;51.526;11.536;2023-01-19T00:02:23;-2.17;80.14
51878;SHT31;37911;51.526;11.536;2023-01-19T00:05:27;-2.26;79.99
51878;SHT31;37911;51.526;11.536;2023-01-19T00:08:30;-2.31;80.06
51878;SHT31;37911;51.526;11.536;2023-01-19T00:11:36;-2.31;80.00
51878;SHT31;37911;51.526;11.536;2023-01-19T00:14:40;-2.40;80.27
51878;SHT31;37911;51.526;11.536;2023-01-19T00:17:43;-2.51;80.20
51878;SHT31;37911;51.526;11.536;2023-01-19T00:20:47;-2.57;80.31
51878;SHT31;37911;51.526;11.536;2023-01-19T00:23:50;-2.60;80.45
51878;SHT31;37911;51.526;11.536;2023-01-19T00:26:56;-2.69;80.86
51878;SHT31;37911;51.526;11.536;2023-01-19T00:30:01;-2.58;81.15
51878;SHT31;37911;51.526;11.536;2023-01-19T00:33:04;-2.51;81.26
51878;SHT31;37911;51.526;11.536;2023-01-19T00:36:08;-2.48;81.24
51878;SHT31;37911;51.526;11.536;2023-01-19T00:39:12;-2.41;80.96
51878;SHT31;37911;51.526;11.536;2023-01-19T00:42:17;-2.40;81.16
51878;SHT31;37911;51.526;11.536;2023-01-19T00:45:33;-2.36;81.15
51878;SHT31;37911;51.526;11.536;2023-01-19T00:48:37;-2.33;81.08
51878;SHT31;37911;51.526;11.536;2023-01-19T00:51:40;-2.27;80.91
51878;SHT31;37911;51.526;11.536;2023-01-19T00:54:43;-2.24;80.60
51878;SHT31;37911;51.526;11.536;2023-01-19T00:57:49;-2.28;80.56
51878;SHT31;37911;51.526;11.536;2023-01-19T01:00:52;-2.31;80.72
51878;SHT31;37911;51.526;11.536;2023-01-19T01:03:56;-2.37;80.95
51878;SHT31;37911;51.526;11.536;2023-01-19T01:06:59;-2.42;80.40
51878;SHT31;37911;51.526;11.536;2023-01-19T01:10:04;-2.51;80.48
51878;SHT31;37911;51.526;11.536;2023-01-19T01:13:11;-2.57;81.15
51878;SHT31;37911;51.526;11.536;2023-01-19T01:16:14;-2.60;81.11
51878;SHT31;37911;51.526;11.536;2023-01-19T01:19:17;-2.68;80.99
51878;SHT31;37911;51.526;11.536;2023-01-19T01:22:21;-2.69;81.10
51878;SHT31;37911;51.526;11.536;2023-01-19T01:25:26;-2.71;80.99
51878;SHT31;37911;51.526;11.536;2023-01-19T01:28:32;-2.65;81.06
51878;SHT31;37911;51.526;11.536;2023-01-19T01:31:36;-2.72;81.39
51878;SHT31;37911;51.526;11.536;2023-01-19T01:34:39;-2.78;81.54
51878;SHT31;37911;51.526;11.536;2023-01-19T01:37:43;-2.79;81.28
51878;SHT31;37911;51.526;11.536;2023-01-19T01:40:47;-2.83;81.02
51878;SHT31;37911;51.526;11.536;2023-01-19T01:43:54;-2.92;81.00
51878;SHT31;37911;51.526;11.536;2023-01-19T01:46:59;-3.06;81.23
51878;SHT31;37911;51.526;11.536;2023-01-19T01:50:07;-3.13;81.24
51878;SHT31;37911;51.526;11.536;2023-01-19T01:53:13;-3.21;81.68
51878;SHT31;37911;51.526;11.536;2023-01-19T01:56:20;-3.12;82.23
51878;SHT31;37911;51.526;11.536;2023-01-19T01:59:31;-3.00;82.09
51878;SHT31;37911;51.526;11.536;2023-01-19T02:02:38;-3.00;81.56
51878;SHT31;37911;51.526;11.536;2023-01-19T02:05:52;-2.92;81.61
51878;SHT31;37911;51.526;11.536;2023-01-19T02:09:02;-2.97;81.16
51878;SHT31;37911;51.526;11.536;2023-01-19T02:12:21;-3.02;81.51
51878;SHT31;37911;51.526;11.536;2023-01-19T02:15:39;-3.03;81.72
51878;SHT31;37911;51.526;11.536;2023-01-19T02:18:43;-3.00;81.54
51878;SHT31;37911;51.526;11.536;2023-01-19T02:21:51;-2.95;81.77
51878;SHT31;37911;51.526;11.536;2023-01-19T02:24:58;-2.85;81.88
51878;SHT31;37911;51.526;11.536;2023-01-19T02:28:02;-2.72;81.85
51878;SHT31;37911;51.526;11.536;2023-01-19T02:31:06;-2.69;81.54
51878;SHT31;37911;51.526;11.536;2023-01-19T02:34:11;-2.68;81.44
51878;SHT31;37911;51.526;11.536;2023-01-19T02:37:16;-2.73;81.34
51878;SHT31;37911;51.526;11.536;2023-01-19T02:40:23;-2.78;81.23
51878;SHT31;37911;51.526;11.536;2023-01-19T02:43:29;-2.69;81.01
51878;SHT31;37911;51.526;11.536;2023-01-19T02:46:33;-2.76;81.05
51878;SHT31;37911;51.526;11.536;2023-01-19T02:49:36;-2.79;81.11
51878;SHT31;37911;51.526;11.536;2023-01-19T02:52:39;-2.78;81.36
51878;SHT31;37911;51.526;11.536;2023-01-19T02:55:49;-2.76;81.77
51878;SHT31;37911;51.526;11.536;2023-01-19T02:58:59;-2.73;81.38
51878;SHT31;37911;51.526;11.536;2023-01-19T03:02:16;-2.79;81.25
51878;SHT31;37911;51.526;11.536;2023-01-19T03:05:32;-2.86;81.44
51878;SHT31;37911;51.526;11.536;2023-01-19T03:08:46;-2.85;81.34
51878;SHT31;37911;51.526;11.536;2023-01-19T03:12:00;-2.78;81.59
51878;SHT31;37911;51.526;11.536;2023-01-19T03:15:12;-2.78;81.58
51878;SHT31;37911;51.526;11.536;2023-01-19T03:18:19;-2.75;81.77
51878;SHT31;37911;51.526;11.536;2023-01-19T03:21:25;-2.76;82.09
51878;SHT31;37911;51.526;11.536;2023-01-19T03:24:32;-2.73;82.00
51878;SHT31;37911;51.526;11.536;2023-01-19T03:27:41;-2.69;82.04
51878;SHT31;37911;51.526;11.536;2023-01-19T03:30:54;-2.72;82.07
51878;SHT31;37911;51.526;11.536;2023-01-19T03:34:01;-2.75;82.44
51878;SHT31;37911;51.526;11.536;2023-01-19T03:37:06;-2.83;82.43
51878;SHT31;37911;51.526;11.536;2023-01-19T03:40:11;-2.86;82.39
51878;SHT31;37911;51.526;11.536;2023-01-19T03:43:17;-2.81;82.33
51878;SHT31;37911;51.526;11.536;2023-01-19T03:46:22;-2.78;82.36
51878;SHT31;37911;51.526;11.536;2023-01-19T03:49:29;-2.76;82.31
51878;SHT31;37911;51.526;11.536;2023-01-19T03:52:32;-2.76;82.26
51878;SHT31;37911;51.526;11.536;2023-01-19T03:55:38;-2.69;82.23
51878;SHT31;37911;51.526;11.536;2023-01-19T03:58:44;-2.58;82.09
51878;SHT31;37911;51.526;11.536;2023-01-19T04:01:48;-2.55;82.14
51878;SHT31;37911;51.526;11.536;2023-01-19T04:04:51;-2.50;82.13
51878;SHT31;37911;51.526;11.536;2023-01-19T04:07:54;-2.44;81.81
51878;SHT31;37911;51.526;11.536;2023-01-19T04:10:58;-2.34;81.47
51878;SHT31;37911;51.526;11.536;2023-01-19T04:14:04;-2.37;81.59
51878;SHT31;37911;51.526;11.536;2023-01-19T04:17:07;-2.34;81.70
51878;SHT31;37911;51.526;11.536;2023-01-19T04:20:11;-2.31;81.27
51878;SHT31;37911;51.526;11.536;2023-01-19T04:23:14;-2.24;81.33
51878;SHT31;37911;51.526;11.536;2023-01-19T04:26:18;-2.21;81.06
51878;SHT31;37911;51.526;11.536;2023-01-19T04:29:24;-2.24;80.80
51878;SHT31;37911;51.526;11.536;2023-01-19T04:32:27;-2.21;80.96
51878;SHT31;37911;51.526;11.536;2023-01-19T04:35:30;-2.21;80.77
51878;SHT31;37911;51.526;11.536;2023-01-19T04:38:34;-2.20;80.57
51878;SHT31;37911;51.526;11.536;2023-01-19T04:41:38;-2.24;80.39
51878;SHT31;37911;51.526;11.536;2023-01-19T04:44:43;-2.21;80.37
51878;SHT31;37911;51.526;11.536;2023-01-19T04:47:47;-2.18;80.12
51878;SHT31;37911;51.526;11.536;2023-01-19T04:50:51;-2.17;80.04
51878;SHT31;37911;51.526;11.536;2023-01-19T04:53:55;-2.18;80.06
51878;SHT31;37911;51.526;11.536;2023-01-19T04:56:58;-2.23;80.38
51878;SHT31;37911;51.526;11.536;2023-01-19T05:00:06;-2.23;80.21
51878;SHT31;37911;51.526;11.536;2023-01-19T05:03:10;-2.23;80.23
51878;SHT31;37911;51.526;11.536;2023-01-19T05:06:13;-2.18;80.09
51878;SHT31;37911;51.526;11.536;2023-01-19T05:09:16;-2.15;80.14
51878;SHT31;37911;51.526;11.536;2023-01-19T05:12:20;-2.15;80.17
51878;SHT31;37911;51.526;11.536;2023-01-19T05:15:26;-2.15;80.19
51878;SHT31;37911;51.526;11.536;2023-01-19T05:18:29;-2.17;80.19
51878;SHT31;37911;51.526;11.536;2023-01-19T05:21:35;-2.14;80.27
51878;SHT31;37911;51.526;11.536;2023-01-19T05:24:38;-2.18;80.41
51878;SHT31;37911;51.526;11.536;2023-01-19T05:27:42;-2.15;80.44
51878;SHT31;37911;51.526;11.536;2023-01-19T05:30:48;-2.17;80.54
51878;SHT31;37911;51.526;11.536;2023-01-19T05:33:51;-2.15;80.42
51878;SHT31;37911;51.526;11.536;2023-01-19T05:36:55;-2.17;80.69
51878;SHT31;37911;51.526;11.536;2023-01-19T05:39:58;-2.17;80.85
51878;SHT31;37911;51.526;11.536;2023-01-19T05:43:01;-2.14;80.94
51878;SHT31;37911;51.526;11.536;2023-01-19T05:46:07;-2.13;80.97
51878;SHT31;37911;51.526;11.536;2023-01-19T05:49:11;-2.07;80.85
51878;SHT31;37911;51.526;11.536;2023-01-19T05:52:14;-1.96;81.04
51878;SHT31;37911;51.526;11.536;2023-01-19T05:55:17;-1.90;80.87
51878;SHT31;37911;51.526;11.536;2023-01-19T05:58:21;-1.80;80.60
51878;SHT31;37911;51.526;11.536;2023-01-19T06:01:27;-1.80;80.75
51878;SHT31;37911;51.526;11.536;2023-01-19T06:04:30;-1.70;80.35
51878;SHT31;37911;51.526;11.536;2023-01-19T06:07:34;-1.73;80.41
51878;SHT31;37911;51.526;11.536;2023-01-19T06:10:37;-1.75;80.36
51878;SHT31;37911;51.526;11.536;2023-01-19T06:13:40;-1.79;80.53
51878;SHT31;37911;51.526;11.536;2023-01-19T06:16:46;-1.75;80.47
51878;SHT31;37911;51.526;11.536;2023-01-19T06:19:49;-1.73;80.66
51878;SHT31;37911;51.526;11.536;2023-01-19T06:22:55;-1.72;80.56
51878;SHT31;37911;51.526;11.536;2023-01-19T06:25:59;-1.69;80.47
51878;SHT31;37911;51.526;11.536;2023-01-19T06:29:02;-1.67;80.43
51878;SHT31;37911;51.526;11.536;2023-01-19T06:32:08;-1.65;80.49
51878;SHT31;37911;51.526;11.536;2023-01-19T06:35:11;-1.60;80.52
51878;SHT31;37911;51.526;11.536;2023-01-19T06:38:15;-1.63;80.59
51878;SHT31;37911;51.526;11.536;2023-01-19T06:41:19;-1.65;80.58
51878;SHT31;37911;51.526;11.536;2023-01-19T06:44:22;-1.65;80.57
51878;SHT31;37911;51.526;11.536;2023-01-19T06:47:28;-1.70;80.82
51878;SHT31;37911;51.526;11.536;2023-01-19T06:50:33;-1.66;80.78
51878;SHT31;37911;51.526;11.536;2023-01-19T06:53:37;-1.69;81.09
51878;SHT31;37911;51.526;11.536;2023-01-19T06:56:40;-1.72;81.24
51878;SHT31;37911;51.526;11.536;2023-01-19T06:59:43;-1.70;81.21
51878;SHT31;37911;51.526;11.536;2023-01-19T07:02:50;-1.67;81.23
51878;SHT31;37911;51.526;11.536;2023-01-19T07:05:53;-1.72;81.34
51878;SHT31;37911;51.526;11.536;2023-01-19T07:08:56;-1.73;81.41
51878;SHT31;37911;51.526;11.536;2023-01-19T07:12:00;-1.75;81.73
51878;SHT31;37911;51.526;11.536;2023-01-19T07:15:04;-1.70;81.64
51878;SHT31;37911;51.526;11.536;2023-01-19T07:18:13;-1.67;81.55
51878;SHT31;37911;51.526;11.536;2023-01-19T07:21:17;-1.67;81.58
51878;SHT31;37911;51.526;11.536;2023-01-19T07:24:20;-1.58;81.53
51878;SHT31;37911;51.526;11.536;2023-01-19T07:27:24;-1.59;81.65
51878;SHT31;37911;51.526;11.536;2023-01-19T07:30:28;-1.56;81.81
51878;SHT31;37911;51.526;11.536;2023-01-19T07:33:33;-1.56;81.93
51878;SHT31;37911;51.526;11.536;2023-01-19T07:36:37;-1.51;81.82
51878;SHT31;37911;51.526;11.536;2023-01-19T07:39:41;-1.49;81.82
51878;SHT31;37911;51.526;11.536;2023-01-19T07:42:45;-1.46;81.70
51878;SHT31;37911;51.526;11.536;2023-01-19T07:45:51;-1.45;81.73
51878;SHT31;37911;51.526;11.536;2023-01-19T07:48:56;-1.45;81.70
51878;SHT31;37911;51.526;11.536;2023-01-19T07:52:00;-1.41;81.63
51878;SHT31;37911;51.526;11.536;2023-01-19T07:55:05;-1.34;81.45
51878;SHT31;37911;51.526;11.536;2023-01-19T07:58:08;-1.32;81.45
51878;SHT31;37911;51.526;11.536;2023-01-19T08:01:12;-1.27;81.39
51878;SHT31;37911;51.526;11.536;2023-01-19T08:04:18;-1.22;81.20
51878;SHT31;37911;51.526;11.536;2023-01-19T08:07:21;-1.21;81.22
51878;SHT31;37911;51.526;11.536;2023-01-19T08:10:26;-1.21;81.10
51878;SHT31;37911;51.526;11.536;2023-01-19T08:13:30;-1.15;81.04
51878;SHT31;37911;51.526;11.536;2023-01-19T08:16:33;-1.16;81.07
51878;SHT31;37911;51.526;11.536;2023-01-19T08:19:41;-1.12;81.16
51878;SHT31;37911;51.526;11.536;2023-01-19T08:22:46;-1.14;81.20
51878;SHT31;37911;51.526;11.536;2023-01-19T08:25:49;-1.15;81.25
51878;SHT31;37911;51.526;11.536;2023-01-19T08:28:53;-1.09;81.25
51878;SHT31;37911;51.526;11.536;2023-01-19T08:31:57;-1.09;81.27
51878;SHT31;37911;51.526;11.536;2023-01-19T08:35:05;-1.02;81.10
51878;SHT31;37911;51.526;11.536;2023-01-19T08:38:09;-1.00;81.01
51878;SHT31;37911;51.526;11.536;2023-01-19T08:41:13;-0.95;80.94
51878;SHT31;37911;51.526;11.536;2023-01-19T08:44:16;-0.91;80.80
51878;SHT31;37911;51.526;11.536;2023-01-19T08:47:20;-0.83;80.77
51878;SHT31;37911;51.526;11.536;2023-01-19T08:50:26;-0.76;80.53
51878;SHT31;37911;51.526;11.536;2023-01-19T08:53:30;-0.63;80.32
51878;SHT31;37911;51.526;11.536;2023-01-19T08:56:34;-0.56;80.12
51878;SHT31;37911;51.526;11.536;2023-01-19T08:59:37;-0.50;79.91
51878;SHT31;37911;51.526;11.536;2023-01-19T09:02:40;-0.33;79.64
51878;SHT31;37911;51.526;11.536;2023-01-19T09:05:47;-0.26;79.17
51878;SHT31;37911;51.526;11.536;2023-01-19T09:09:09;-0.12;78.94
51878;SHT31;37911;51.526;11.536;2023-01-19T09:12:12;0.01;78.43
51878;SHT31;37911;51.526;11.536;2023-01-19T09:15:16;0.16;78.29
51878;SHT31;37911;51.526;11.536;2023-01-19T09:18:20;0.32;77.33
51878;SHT31;37911;51.526;11.536;2023-01-19T09:21:27;0.53;76.54
51878;SHT31;37911;51.526;11.536;2023-01-19T09:24:30;0.73;75.63
51878;SHT31;37911;51.526;11.536;2023-01-19T09:27:34;0.87;75.28
51878;SHT31;37911;51.526;11.536;2023-01-19T09:30:39;1.10;74.97
51878;SHT31;37911;51.526;11.536;2023-01-19T09:33:42;1.14;74.09
51878;SHT31;37911;51.526;11.536;2023-01-19T09:36:48;1.35;73.85
51878;SHT31;37911;51.526;11.536;2023-01-19T09:43:11;1.78;72.89
51878;SHT31;37911;51.526;11.536;2023-01-19T09:46:18;1.66;72.13
51878;SHT31;37911;51.526;11.536;2023-01-19T09:49:30;1.52;73.15
51878;SHT31;37911;51.526;11.536;2023-01-19T09:52:40;1.45;73.26
51878;SHT31;37911;51.526;11.536;2023-01-19T09:55:45;1.50;72.68
51878;SHT31;37911;51.526;11.536;2023-01-19T09:58:50;1.64;72.97
51878;SHT31;37911;51.526;11.536;2023-01-19T10:02:05;1.66;72.79
51878;SHT31;37911;51.526;11.536;2023-01-19T10:05:22;1.82;72.03
51878;SHT31;37911;51.526;11.536;2023-01-19T10:08:36;1.96;72.09
51878;SHT31;37911;51.526;11.536;2023-01-19T10:11:47;2.17;71.10
51878;SHT31;37911;51.526;11.536;2023-01-19T10:14:56;2.37;70.52
51878;SHT31;37911;51.526;11.536;2023-01-19T10:18:12;2.40;70.43
51878;SHT31;37911;51.526;11.536;2023-01-19T10:21:18;2.51;70.41
51878;SHT31;37911;51.526;11.536;2023-01-19T10:24:27;2.43;69.81
51878;SHT31;37911;51.526;11.536;2023-01-19T10:27:32;2.61;70.18
51878;SHT31;37911;51.526;11.536;2023-01-19T10:30:37;2.67;70.46
51878;SHT31;37911;51.526;11.536;2023-01-19T10:33:41;2.77;69.24
51878;SHT31;37911;51.526;11.536;2023-01-19T10:36:48;2.83;69.15
51878;SHT31;37911;51.526;11.536;2023-01-19T10:39:56;2.81;69.40
51878;SHT31;37911;51.526;11.536;2023-01-19T10:42:59;2.95;69.29
51878;SHT31;37911;51.526;11.536;2023-01-19T10:46:05;3.02;68.26
51878;SHT31;37911;51.526;11.536;2023-01-19T10:49:22;3.11;68.03
51878;SHT31;37911;51.526;11.536;2023-01-19T10:52:30;3.00;68.18
51878;SHT31;37911;51.526;11.536;2023-01-19T10:55:38;3.09;68.42
51878;SHT31;37911;51.526;11.536;2023-01-19T10:58:41;3.29;68.72
51878;SHT31;37911;51.526;11.536;2023-01-19T11:02:01;3.34;67.03
51878;SHT31;37911;51.526;11.536;2023-01-19T11:05:21;3.14;67.20
51878;SHT31;37911;51.526;11.536;2023-01-19T11:08:28;3.14;67.57
51878;SHT31;37911;51.526;11.536;2023-01-19T11:11:40;3.28;67.79
51878;SHT31;37911;51.526;11.536;2023-01-19T11:14:44;3.36;67.28
51878;SHT31;37911;51.526;11.536;2023-01-19T11:17:48;3.60;66.81
51878;SHT31;37911;51.526;11.536;2023-01-19T11:20:54;3.56;66.54
51878;SHT31;37911;51.526;11.536;2023-01-19T11:23:59;3.75;66.66
51878;SHT31;37911;51.526;11.536;2023-01-19T11:27:07;3.89;66.56
51878;SHT31;37911;51.526;11.536;2023-01-19T11:30:17;3.90;66.05
51878;SHT31;37911;51.526;11.536;2023-01-19T11:33:23;3.86;66.38
51878;SHT31;37911;51.526;11.536;2023-01-19T11:36:28;3.66;66.70
51878;SHT31;37911;51.526;11.536;2023-01-19T11:39:45;3.35;67.56
51878;SHT31;37911;51.526;11.536;2023-01-19T11:42:51;3.09;68.35
51878;SHT31;37911;51.526;11.536;2023-01-19T11:45:56;2.85;68.69
51878;SHT31;37911;51.526;11.536;2023-01-19T11:49:02;2.63;69.49
51878;SHT31;37911;51.526;11.536;2023-01-19T11:52:12;2.46;69.92
51878;SHT31;37911;51.526;11.536;2023-01-19T11:55:21;2.39;70.39
51878;SHT31;37911;51.526;11.536;2023-01-19T11:58:30;2.32;70.50
51878;SHT31;37911;51.526;11.536;2023-01-19T12:01:38;2.30;70.86
51878;SHT31;37911;51.526;11.536;2023-01-19T12:04:45;2.25;71.06
51878;SHT31;37911;51.526;11.536;2023-01-19T12:07:50;2.26;71.16
51878;SHT31;37911;51.526;11.536;2023-01-19T12:10:56;2.27;71.27
51878;SHT31;37911;51.526;11.536;2023-01-19T12:14:03;2.40;70.86
51878;SHT31;37911;51.526;11.536;2023-01-19T12:17:15;2.43;70.53
51878;SHT31;37911;51.526;11.536;2023-01-19T12:20:26;2.57;70.77
51878;SHT31;37911;51.526;11.536;2023-01-19T12:23:40;2.64;69.97
51878;SHT31;37911;51.526;11.536;2023-01-19T12:26:50;2.71;70.07
51878;SHT31;37911;51.526;11.536;2023-01-19T12:29:57;2.80;69.94
51878;SHT31;37911;51.526;11.536;2023-01-19T12:33:19;2.73;69.87
51878;SHT31;37911;51.526;11.536;2023-01-19T12:36:36;2.70;70.06
51878;SHT31;37911;51.526;11.536;2023-01-19T12:39:47;2.54;69.88
51878;SHT31;37911;51.526;11.536;2023-01-19T12:42:54;2.54;70.38
51878;SHT31;37911;51.526;11.536;2023-01-19T12:46:01;2.49;70.75
51878;SHT31;37911;51.526;11.536;2023-01-19T12:49:05;2.50;70.68
51878;SHT31;37911;51.526;11.536;2023-01-19T12:52:22;2.43;70.76
51878;SHT31;37911;51.526;11.536;2023-01-19T12:55:28;2.51;71.06
51878;SHT31;37911;51.526;11.536;2023-01-19T12:58:32;2.54;70.65
51878;SHT31;37911;51.526;11.536;2023-01-19T13:01:38;2.58;70.75
51878;SHT31;37911;51.526;11.536;2023-01-19T13:08:24;2.63;70.48
51878;SHT31;37911;51.526;11.536;2023-01-19T13:11:29;2.65;70.71
51878;SHT31;37911;51.526;11.536;2023-01-19T13:14:34;2.71;70.91
51878;SHT31;37911;51.526;11.536;2023-01-19T13:17:46;2.68;70.89
51878;SHT31;37911;51.526;11.536;2023-01-19T13:20:53;2.60;71.29
51878;SHT31;37911;51.526;11.536;2023-01-19T13:24:03;2.58;71.22
51878;SHT31;37911;51.526;11.536;2023-01-19T13:27:11;2.60;71.20
51878;SHT31;37911;51.526;11.536;2023-01-19T13:30:16;2.61;71.47
51878;SHT31;37911;51.526;11.536;2023-01-19T13:33:23;2.64;71.87
51878;SHT31;37911;51.526;11.536;2023-01-19T13:36:29;2.61;71.90
51878;SHT31;37911;51.526;11.536;2023-01-19T13:39:37;2.54;72.00
51878;SHT31;37911;51.526;11.536;2023-01-19T13:42:45;2.49;72.06
51878;SHT31;37911;51.526;11.536;2023-01-19T13:45:50;2.50;72.18
51878;SHT31;37911;51.526;11.536;2023-01-19T13:48:56;2.43;72.45
51878;SHT31;37911;51.526;11.536;2023-01-19T13:52:05;2.43;72.63
51878;SHT31;37911;51.526;11.536;2023-01-19T13:55:14;2.40;72.70
51878;SHT31;37911;51.526;11.536;2023-01-19T13:58:20;2.43;72.93
51878;SHT31;37911;51.526;11.536;2023-01-19T14:01:25;2.39;72.93
51878;SHT31;37911;51.526;11.536;2023-01-19T14:04:31;2.37;73.34
51878;SHT31;37911;51.526;11.536;2023-01-19T14:07:35;2.30;73.51
51878;SHT31;37911;51.526;11.536;2023-01-19T14:10:42;2.25;73.82
51878;SHT31;37911;51.526;11.536;2023-01-19T14:13:46;2.23;73.97
51878;SHT31;37911;51.526;11.536;2023-01-19T14:16:49;2.20;74.43
51878;SHT31;37911;51.526;11.536;2023-01-19T14:19:54;2.19;74.55
51878;SHT31;37911;51.526;11.536;2023-01-19T14:22:57;2.22;74.82
51878;SHT31;37911;51.526;11.536;2023-01-19T14:26:04;2.15;75.12
51878;SHT31;37911;51.526;11.536;2023-01-19T14:29:24;2.19;75.32
51878;SHT31;37911;51.526;11.536;2023-01-19T14:32:28;2.17;75.41
51878;SHT31;37911;51.526;11.536;2023-01-19T14:35:31;2.16;75.73
51878;SHT31;37911;51.526;11.536;2023-01-19T14:38:34;2.13;76.07
51878;SHT31;37911;51.526;11.536;2023-01-19T14:41:44;2.10;76.34
51878;SHT31;37911;51.526;11.536;2023-01-19T14:44:50;1.99;76.92
51878;SHT31;37911;51.526;11.536;2023-01-19T14:47:55;1.94;77.30
51878;SHT31;37911;51.526;11.536;2023-01-19T14:51:00;1.86;77.73
51878;SHT31;37911;51.526;11.536;2023-01-19T14:54:05;1.79;78.17
51878;SHT31;37911;51.526;11.536;2023-01-19T14:57:16;1.82;78.24
51878;SHT31;37911;51.526;11.536;2023-01-19T15:00:20;1.85;78.39
51878;SHT31;37911;51.526;11.536;2023-01-19T15:03:25;1.79;78.69
51878;SHT31;37911;51.526;11.536;2023-01-19T15:06:31;1.75;78.94
51878;SHT31;37911;51.526;11.536;2023-01-19T15:09:35;1.65;79.28
51878;SHT31;37911;51.526;11.536;2023-01-19T15:12:42;1.65;79.45
51878;SHT31;37911;51.526;11.536;2023-01-19T15:15:45;1.62;79.66
51878;SHT31;37911;51.526;11.536;2023-01-19T15:18:49;1.62;79.88
51878;SHT31;37911;51.526;11.536;2023-01-19T15:21:52;1.55;80.22
51878;SHT31;37911;51.526;11.536;2023-01-19T15:24:55;1.51;80.74
51878;SHT31;37911;51.526;11.536;2023-01-19T15:28:09;1.48;80.95
51878;SHT31;37911;51.526;11.536;2023-01-19T15:31:14;1.48;81.13
51878;SHT31;37911;51.526;11.536;2023-01-19T15:34:18;1.51;80.99
51878;SHT31;37911;51.526;11.536;2023-01-19T15:37:21;1.48;81.16
51878;SHT31;37911;51.526;11.536;2023-01-19T15:40:24;1.45;81.28
51878;SHT31;37911;51.526;11.536;2023-01-19T15:43:30;1.48;81.23
51878;SHT31;37911;51.526;11.536;2023-01-19T15:46:33;1.48;81.33
51878;SHT31;37911;51.526;11.536;2023-01-19T15:49:37;1.47;81.22
51878;SHT31;37911;51.526;11.536;2023-01-19T15:52:40;1.48;81.21
51878;SHT31;37911;51.526;11.536;2023-01-19T15:55:47;1.48;81.15
51878;SHT31;37911;51.526;11.536;2023-01-19T15:58:53;1.47;81.18
51878;SHT31;37911;51.526;11.536;2023-01-19T16:01:57;1.48;81.30
51878;SHT31;37911;51.526;11.536;2023-01-19T16:05:00;1.41;81.63
51878;SHT31;37911;51.526;11.536;2023-01-19T16:08:04;1.40;81.88
51878;SHT31;37911;51.526;11.536;2023-01-19T16:11:09;1.37;82.25
51878;SHT31;37911;51.526;11.536;2023-01-19T16:14:15;1.38;82.53
51878;SHT31;37911;51.526;11.536;2023-01-19T16:17:19;1.35;82.73
51878;SHT31;37911;51.526;11.536;2023-01-19T16:20:22;1.35;82.93
51878;SHT31;37911;51.526;11.536;2023-01-19T16:23:25;1.28;83.46
51878;SHT31;37911;51.526;11.536;2023-01-19T16:26:30;1.27;83.76
51878;SHT31;37911;51.526;11.536;2023-01-19T16:29:36;1.27;84.18
51878;SHT31;37911;51.526;11.536;2023-01-19T16:32:40;1.20;84.98
51878;SHT31;37911;51.526;11.536;2023-01-19T16:35:43;1.17;85.27
51878;SHT31;37911;51.526;11.536;2023-01-19T16:38:46;1.20;85.41
51878;SHT31;37911;51.526;11.536;2023-01-19T16:41:49;1.16;85.98
51878;SHT31;37911;51.526;11.536;2023-01-19T16:44:55;1.20;86.38
51878;SHT31;37911;51.526;11.536;2023-01-19T16:47:59;1.16;86.79
51878;SHT31;37911;51.526;11.536;2023-01-19T16:51:04;1.11;87.08
51878;SHT31;37911;51.526;11.536;2023-01-19T16:54:11;1.08;87.59
51878;SHT31;37911;51.526;11.536;2023-01-19T16:57:14;1.03;87.74
51878;SHT31;37911;51.526;11.536;2023-01-19T17:00:20;0.97;88.11
51878;SHT31;37911;51.526;11.536;2023-01-19T17:03:24;0.91;88.42
51878;SHT31;37911;51.526;11.536;2023-01-19T17:06:27;0.91;88.74
51878;SHT31;37911;51.526;11.536;2023-01-19T17:09:30;0.91;88.87
51878;SHT31;37911;51.526;11.536;2023-01-19T17:12:33;0.93;88.86
51878;SHT31;37911;51.526;11.536;2023-01-19T17:15:39;0.87;89.11
51878;SHT31;37911;51.526;11.536;2023-01-19T17:18:43;0.86;89.29
51878;SHT31;37911;51.526;11.536;2023-01-19T17:21:47;0.86;89.20
51878;SHT31;37911;51.526;11.536;2023-01-19T17:24:51;0.86;89.22
51878;SHT31;37911;51.526;11.536;2023-01-19T17:27:54;0.87;89.27
51878;SHT31;37911;51.526;11.536;2023-01-19T17:31:05;0.87;89.25
51878;SHT31;37911;51.526;11.536;2023-01-19T17:34:09;0.89;89.26
51878;SHT31;37911;51.526;11.536;2023-01-19T17:37:13;0.84;89.31
51878;SHT31;37911;51.526;11.536;2023-01-19T17:40:16;0.89;89.45
51878;SHT31;37911;51.526;11.536;2023-01-19T17:43:19;0.90;89.39
51878;SHT31;37911;51.526;11.536;2023-01-19T17:46:26;0.89;89.34
51878;SHT31;37911;51.526;11.536;2023-01-19T17:49:30;0.93;89.19
51878;SHT31;37911;51.526;11.536;2023-01-19T17:52:34;0.93;89.32
51878;SHT31;37911;51.526;11.536;2023-01-19T17:55:37;0.96;89.27
51878;SHT31;37911;51.526;11.536;2023-01-19T17:58:41;0.97;89.27
51878;SHT31;37911;51.526;11.536;2023-01-19T18:01:46;0.97;89.28
51878;SHT31;37911;51.526;11.536;2023-01-19T18:04:50;1.01;89.19
51878;SHT31;37911;51.526;11.536;2023-01-19T18:07:54;1.00;89.18
51878;SHT31;37911;51.526;11.536;2023-01-19T18:11:00;1.00;89.11
51878;SHT31;37911;51.526;11.536;2023-01-19T18:14:04;1.01;89.06
51878;SHT31;37911;51.526;11.536;2023-01-19T18:17:10;1.04;89.07
51878;SHT31;37911;51.526;11.536;2023-01-19T18:20:13;1.10;88.90
51878;SHT31;37911;51.526;11.536;2023-01-19T18:23:16;1.11;88.90
51878;SHT31;37911;51.526;11.536;2023-01-19T18:26:21;1.07;88.81
51878;SHT31;37911;51.526;11.536;2023-01-19T18:29:24;1.07;88.82
51878;SHT31;37911;51.526;11.536;2023-01-19T18:32:30;1.11;88.75
51878;SHT31;37911;51.526;11.536;2023-01-19T18:35:37;1.11;88.59
51878;SHT31;37911;51.526;11.536;2023-01-19T18:38:40;1.11;88.59
51878;SHT31;37911;51.526;11.536;2023-01-19T18:41:44;1.13;88.57
51878;SHT31;37911;51.526;11.536;2023-01-19T18:44:47;1.11;88.43
51878;SHT31;37911;51.526;11.536;2023-01-19T18:47:53;1.14;88.47
51878;SHT31;37911;51.526;11.536;2023-01-19T18:50:56;1.10;88.54
51878;SHT31;37911;51.526;11.536;2023-01-19T18:54:02;1.11;88.40
51878;SHT31;37911;51.526;11.536;2023-01-19T18:57:06;1.13;88.31
51878;SHT31;37911;51.526;11.536;2023-01-19T19:00:10;1.07;88.26
51878;SHT31;37911;51.526;11.536;2023-01-19T19:03:16;1.05;88.09
51878;SHT31;37911;51.526;11.536;2023-01-19T19:06:20;1.05;88.01
51878;SHT31;37911;51.526;11.536;2023-01-19T19:09:26;1.05;87.51
51878;SHT31;37911;51.526;11.536;2023-01-19T19:12:29;1.05;87.42
51878;SHT31;37911;51.526;11.536;2023-01-19T19:15:33;1.08;87.20
51878;SHT31;37911;51.526;11.536;2023-01-19T19:18:39;1.10;86.99
51878;SHT31;37911;51.526;11.536;2023-01-19T19:21:42;1.07;86.86
51878;SHT31;37911;51.526;11.536;2023-01-19T19:24:45;1.04;86.86
51878;SHT31;37911;51.526;11.536;2023-01-19T19:27:49;1.04;86.81
51878;SHT31;37911;51.526;11.536;2023-01-19T19:31:01;0.99;86.80
51878;SHT31;37911;51.526;11.536;2023-01-19T19:34:22;1.00;86.66